Time;durP1;ratioP1;P1;durP2;ratioP2;P2;SDS_P1;SDS_P2;PMS_P1;PMS_P2;Temp;Humidity;BMP_temperature;BMP_pressure;BME280_temperature;BME280_humidity;BME280_pressure;Samples;Min_cycle;Max_cycle;Signal;HPM_P1;HPM_P2
2020/12/11 00:02:04;;;;;;;17.80;8.68;;;;;;;;;;6245359;23;20008;-73
2020/12/11 00:04:31;;;;;;;15.40;7.47;;;;;;;;;;6245588;23;20035;-73
2020/12/11 00:06:58;;;;;;;19.77;8.75;;;3.60;67.80;;;;;;6244750;23;20054;-71
2020/12/11 00:09:25;;;;;;;13.07;7.63;;;;;;;;;;6245665;23;20007;-73
2020/12/11 00:11:51;;;;;;;17.00;9.18;;;;;;;;;;6217923;23;20077;-72
2020/12/11 00:14:18;;;;;;;21.75;10.60;;;3.70;67.80;;;;;;6246724;23;20050;-72
2020/12/11 00:16:44;;;;;;;19.67;10.60;;;;;;;;;;6245399;23;20012;-71
2020/12/11 00:19:10;;;;;;;21.92;10.77;;;;;;;;;;6245456;23;20008;-71
2020/12/11 00:21:43;;;;;;;19.58;10.45;;;4.30;65.80;;;;;;6245613;23;20075;-71
2020/12/11 00:24:11;;;;;;;24.08;10.95;;;4.50;64.50;;;;;;6245572;23;20015;-72
2020/12/11 00:26:37;;;;;;;21.48;10.95;;;;;;;;;;6245204;23;20018;-72
2020/12/11 00:29:03;;;;;;;18.65;9.77;;;;;;;;;;6245187;22;20008;-73
2020/12/11 00:31:30;;;;;;;17.60;9.20;;;;;;;;;;6245268;23;20012;-72
2020/12/11 00:33:56;;;;;;;19.27;9.48;;;;;;;;;;6244971;23;20082;-71
2020/12/11 00:36:23;;;;;;;21.27;10.75;;;;;;;;;;6245036;23;20008;-72
2020/12/11 00:38:49;;;;;;;18.80;10.48;;;;;;;;;;6244764;23;20428;-73
2020/12/11 00:41:16;;;;;;;21.80;9.57;;;;;;;;;;6244917;23;20325;-72
2020/12/11 00:43:42;;;;;;;25.73;11.07;;;;;;;;;;6245141;23;20004;-72
2020/12/11 00:46:08;;;;;;;23.10;11.30;;;;;;;;;;6245271;23;20012;-72
2020/12/11 00:48:34;;;;;;;19.83;10.43;;;;;;;;;;6245175;23;20011;-73
2020/12/11 00:51:01;;;;;;;17.55;9.07;;;;;;;;;;6244938;23;20004;-73
2020/12/11 00:53:27;;;;;;;21.67;10.55;;;;;;;;;;6217950;23;20012;-71
2020/12/11 00:55:53;;;;;;;18.67;10.75;;;;;;;;;;6218516;23;20016;-73
2020/12/11 00:58:19;;;;;;;22.38;10.70;;;;;;;;;;6244613;23;20028;-71
2020/12/11 01:00:46;;;;;;;24.33;11.93;;;;;;;;;;6244658;23;20005;-72
2020/12/11 01:03:12;;;;;;;24.50;11.30;;;;;;;;;;6217878;23;20058;-72
2020/12/11 01:05:38;;;;;;;23.55;10.45;;;;;;;;;;6245051;23;20012;-71
2020/12/11 01:08:05;;;;;;;21.00;9.20;;;;;;;;;;6244229;23;20015;-73
2020/12/11 01:10:31;;;;;;;20.02;10.32;;;;;;;;;;6217729;23;20011;-72
2020/12/11 01:12:57;;;;;;;19.08;10.05;;;;;;;;;;6217940;23;20012;-72
2020/12/11 01:15:24;;;;;;;22.63;10.50;;;;;;;;;;6244559;23;20014;-74
2020/12/11 01:17:50;;;;;;;23.40;11.57;;;;;;;;;;6244804;23;20012;-72
2020/12/11 01:20:17;;;;;;;16.08;9.38;;;;;;;;;;6245295;23;20079;-72
2020/12/11 01:22:43;;;;;;;27.60;9.55;;;;;;;;;;6245080;23;20014;-72
2020/12/11 01:25:09;;;;;;;22.02;10.65;;;;;;;;;;6245180;23;20019;-74
2020/12/11 01:27:36;;;;;;;20.58;10.07;;;;;;;;;;6245098;23;20087;-73
2020/12/11 01:30:03;;;;;;;16.90;9.38;;;4.50;63.40;;;;;;6251745;23;20108;-73
2020/12/11 01:32:32;;;;;;;23.80;10.75;;;4.40;64.10;;;;;;6249222;23;20429;-73
2020/12/11 01:34:59;;;;;;;21.48;10.07;;;;;;;;;;6248478;23;20044;-71
2020/12/11 01:37:26;;;;;;;19.45;9.73;;;;;;;;;;6225159;23;20008;-72
2020/12/11 01:39:53;;;;;;;18.67;9.35;;;;;;;;;;6219332;23;20009;-72
2020/12/11 01:42:19;;;;;;;20.42;8.75;;;;;;;;;;6219712;23;20034;-72
2020/12/11 01:44:53;;;;;;;18.25;9.35;;;3.50;66.80;;;;;;6224981;23;20073;-74
2020/12/11 01:47:20;;;;;;;19.58;9.73;;;3.30;68.00;;;;;;6245841;23;20019;-72
2020/12/11 01:49:47;;;;;;;23.20;11.35;;;;;;;;;;6217308;23;20077;-72
2020/12/11 01:52:15;;;;;;;24.30;11.38;;;3.80;67.20;;;;;;6245839;23;20005;-72
2020/12/11 01:54:42;;;;;;;21.23;10.73;;;;;;;;;;6218051;23;20011;-73
2020/12/11 01:57:21;;;;;;;21.52;10.68;;;4.20;64.90;;;;;;6244689;23;20110;-72
2020/12/11 01:59:52;;;;;;;21.63;10.95;;;4.30;64.50;;;;;;6244506;23;20016;-72
2020/12/11 02:02:22;;;;;;;24.88;11.68;;;4.10;65.00;;;;;;6192632;23;20082;-73
2020/12/11 02:04:49;;;;;;;20.17;10.05;;;;;;;;;;6244490;23;20057;-72
2020/12/11 02:07:15;;;;;;;24.88;12.55;;;;;;;;;;6245144;23;20015;-72
2020/12/11 02:09:42;;;;;;;21.73;12.10;;;4.50;63.70;;;;;;6244630;23;20089;-71
2020/12/11 02:12:08;;;;;;;24.25;11.73;;;;;;;;;;6244151;23;20059;-72
2020/12/11 02:14:34;;;;;;;18.13;9.82;;;;;;;;;;6244151;23;20047;-73
2020/12/11 02:17:05;;;;;;;23.40;11.57;;;4.00;65.20;;;;;;6244024;23;20015;-71
2020/12/11 02:19:35;;;;;;;25.85;12.77;;;4.10;65.10;;;;;;6243386;23;20012;-70
2020/12/11 02:22:03;;;;;;;24.65;11.75;;;4.30;64.40;;;;;;6244201;23;20007;-73
2020/12/11 02:24:30;;;;;;;24.05;11.10;;;;;;;;;;6217695;23;20083;-72
2020/12/11 02:26:57;;;;;;;25.95;12.27;;;4.10;64.60;;;;;;6244244;23;20011;-70
2020/12/11 02:29:24;;;;;;;21.52;12.23;;;4.40;64.40;;;;;;6243683;23;20012;-71
2020/12/11 02:31:49;;;;;;;;;;;4.30;64.80;;;;;;6244463;23;20448;-72
2020/12/11 02:34:16;;;;;;;18.50;10.50;;;;;;;;;;6243812;23;19946;-71
2020/12/11 02:36:42;;;;;;;26.52;11.27;;;;;;;;;;6244142;23;20008;-71
2020/12/11 02:39:09;;;;;;;20.15;10.80;;;;;;;;;;6244127;23;20024;-72
2020/12/11 02:41:35;;;;;;;21.70;10.27;;;;;;;;;;6243934;23;20314;-72
2020/12/11 02:44:01;;;;;;;24.92;12.27;;;;;;;;;;6243989;23;20008;-72
2020/12/11 02:46:28;;;;;;;22.33;11.93;;;4.90;60.90;;;;;;6243585;23;20341;-71
2020/12/11 02:48:55;;;;;;;27.75;11.65;;;;;;;;;;6244126;23;20011;-71
2020/12/11 02:51:21;;;;;;;34.47;12.13;;;5.10;60.70;;;;;;6244041;23;20004;-72
2020/12/11 02:53:50;;;;;;;21.70;11.65;;;;;;;;;;6243870;23;20004;-72
2020/12/11 02:56:21;;;;;;;18.98;10.93;;;5.30;60.00;;;;;;6244084;23;20015;-72
2020/12/11 02:58:47;;;;;;;29.92;12.25;;;;;;;;;;6243689;23;20024;-71
2020/12/11 03:01:14;;;;;;;26.80;10.57;;;;;;;;;;6243523;23;20419;-72
2020/12/11 03:03:40;;;;;;;28.92;11.77;;;;;;;;;;6243253;23;20456;-71
2020/12/11 03:06:07;;;;;;;27.45;12.45;;;;;;;;;;6243283;23;20015;-72
2020/12/11 03:08:33;;;;;;;18.67;9.25;;;;;;;;;;6243606;23;20512;-73
2020/12/11 03:10:59;;;;;;;19.17;9.57;;;;;;;;;;6243879;23;20016;-72
2020/12/11 03:13:26;;;;;;;23.13;11.43;;;;;;;;;;6217549;23;20077;-73
2020/12/11 03:15:52;;;;;;;19.88;10.00;;;;;;;;;;6244417;23;20026;-73
2020/12/11 03:18:19;;;;;;;25.65;9.90;;;;;;;;;;6217602;23;20008;-72
2020/12/11 03:20:45;;;;;;;24.27;10.45;;;;;;;;;;6243370;23;20329;-72
2020/12/11 03:23:11;;;;;;;22.90;9.90;;;;;;;;;;6243421;23;20325;-71
2020/12/11 03:25:37;;;;;;;19.17;10.40;;;;;;;;;;6243928;23;20047;-73
2020/12/11 03:28:04;;;;;;;22.58;10.18;;;;;;;;;;6220707;23;20023;-71
2020/12/11 03:30:30;;;;;;;24.55;11.18;;;;;;;;;;6221243;23;20057;-73
2020/12/11 03:32:56;;;;;;;23.65;10.77;;;;;;;;;;6243293;23;20574;-72
2020/12/11 03:35:23;;;;;;;21.25;10.90;;;;;;;;;;6246351;23;20004;-72
2020/12/11 03:37:49;;;;;;;20.05;8.80;;;;;;;;;;6245910;23;20451;-72
2020/12/11 03:40:15;;;;;;;20.73;10.50;;;;;;;;;;6218941;23;20011;-72
2020/12/11 03:42:41;;;;;;;20.70;10.68;;;;;;;;;;6247345;23;20048;-72
2020/12/11 03:45:08;;;;;;;23.77;11.10;;;;;;;;;;6247167;23;20040;-73
2020/12/11 03:47:34;;;;;;;21.02;10.40;;;;;;;;;;6246208;23;20012;-72
2020/12/11 03:50:00;;;;;;;17.25;8.75;;;;;;;;;;6245804;23;20012;-74
2020/12/11 03:52:30;;;;;;;21.08;10.05;;;3.30;66.60;;;;;;6245791;23;20023;-73
2020/12/11 03:54:56;;;;;;;17.83;8.75;;;;;;;;;;6218303;23;20011;-72
2020/12/11 03:57:23;;;;;;;18.83;9.27;;;3.30;67.10;;;;;;6245990;23;20018;-72
2020/12/11 03:59:50;;;;;;;16.38;8.68;;;;;;;;;;6239436;23;20194;-71
2020/12/11 04:02:16;;;;;;;17.58;9.07;;;;;;;;;;6251830;22;20095;-71
2020/12/11 04:04:43;;;;;;;23.40;9.90;;;;;;;;;;6250448;23;20012;-73
2020/12/11 04:07:10;;;;;;;15.60;9.00;;;;;;;;;;6250309;22;20437;-73
2020/12/11 04:09:36;;;;;;;20.55;9.93;;;;;;;;;;6250658;23;20011;-72
2020/12/11 04:12:02;;;;;;;17.95;9.10;;;;;;;;;;6248928;23;20008;-71
2020/12/11 04:14:28;;;;;;;20.55;11.90;;;;;;;;;;6250681;22;20004;-73
2020/12/11 04:16:55;;;;;;;20.30;10.52;;;;;;;;;;6244957;23;20341;-72
2020/12/11 04:19:21;;;;;;;22.30;10.93;;;;;;;;;;6245586;23;20023;-72
2020/12/11 04:21:49;;;;;;;18.65;10.13;;;4.10;63.40;;;;;;6245546;22;20089;-72
2020/12/11 04:24:16;;;;;;;23.52;11.38;;;;;;;;;;6245385;22;20000;-72
2020/12/11 04:26:42;;;;;;;15.98;8.70;;;;;;;;;;6245697;22;20008;-72
2020/12/11 04:29:09;;;;;;;19.05;8.93;;;;;;;;;;6244689;22;20027;-71
2020/12/11 04:31:35;;;;;;;21.23;10.70;;;;;;;;;;6245304;22;20110;-72
2020/12/11 04:34:01;;;;;;;22.88;11.77;;;;;;;;;;6243750;23;20004;-71
2020/12/11 04:36:27;;;;;;;18.05;9.65;;;;;;;;;;6242973;23;20313;-72
2020/12/11 04:38:54;;;;;;;20.20;9.95;;;;;;;;;;6244988;23;20000;-73
2020/12/11 04:41:20;;;;;;;19.40;9.15;;;;;;;;;;6243567;23;20008;-74
2020/12/11 04:43:49;;;;;;;16.70;9.32;;;3.50;66.70;;;;;;6243374;23;20441;-72
2020/12/11 04:46:16;;;;;;;21.38;10.15;;;;;;;;;;6245437;22;20081;-72
2020/12/11 04:48:42;;;;;;;21.85;10.50;;;3.70;65.30;;;;;;6244019;23;20000;-72
2020/12/11 04:51:09;;;;;;;20.63;10.02;;;4.30;64.40;;;;;;6244145;23;20011;-73
2020/12/11 04:53:37;;;;;;;18.77;9.82;;;4.20;64.70;;;;;;6244974;23;20429;-72
2020/12/11 04:56:05;;;;;;;15.18;8.75;;;4.00;64.90;;;;;;6245368;22;20004;-76
2020/12/11 04:58:32;;;;;;;22.50;10.23;;;4.00;65.10;;;;;;6245547;22;20024;-73
2020/12/11 05:01:12;;;;;;;23.67;11.20;;;4.30;64.60;;;;;;6246721;23;20004;-73
2020/12/11 05:03:38;;;;;;;17.88;9.55;;;;;;;;;;6245753;23;20023;-73
2020/12/11 05:06:04;;;;;;;17.30;9.90;;;;;;;;;;6245719;23;20022;-71
2020/12/11 05:08:30;;;;;;;21.27;9.43;;;;;;;;;;6246020;23;20019;-73
2020/12/11 05:10:57;;;;;;;14.77;8.93;;;;;;;;;;6245628;23;20087;-73
2020/12/11 05:13:26;;;;;;;21.13;10.57;;;4.40;64.50;;;;;;6245343;23;20027;-72
2020/12/11 05:16:24;;;;;;;21.95;10.57;;;4.10;64.90;;;;;;6245369;23;20009;-73
2020/12/11 05:19:04;;;;;;;20.88;10.15;;;4.30;64.80;;;;;;6093394;23;20010;-73
2020/12/11 05:21:32;;;;;;;20.15;10.63;;;4.50;64.50;;;;;;6093357;23;20014;-71
2020/12/11 05:24:05;;;;;;;27.10;8.75;;;4.40;63.80;;;;;;6093847;23;20044;-71
2020/12/11 05:26:35;;;;;;;17.42;9.93;;;4.20;63.60;;;;;;6093575;23;20006;-72
2020/12/11 05:29:03;;;;;;;21.30;10.02;;;4.60;63.40;;;;;;6092482;23;20022;-72
2020/12/11 05:31:29;;;;;;;21.50;10.68;;;;;;;;;;6092619;23;20124;-72
2020/12/11 05:34:00;;;;;;;21.30;10.48;;;4.30;64.40;;;;;;6092796;23;20020;-72
2020/12/11 05:36:26;;;;;;;25.75;10.50;;;;;;;;;;6092499;23;20121;-72
2020/12/11 05:38:52;;;;;;;18.35;10.80;;;;;;;;;;6092772;23;20050;-70
2020/12/11 05:41:37;;;;;;;19.02;9.20;;;4.30;64.00;;;;;;6092739;23;20042;-72
2020/12/11 05:44:25;;;;;;;23.17;11.70;;;4.50;64.40;;;;;;6093628;23;20422;-72
2020/12/11 05:46:51;;;;;;;22.52;10.45;;;;;;;;;;6092883;23;20033;-72
2020/12/11 05:49:27;;;;;;;19.33;9.75;;;5.00;62.10;;;;;;6092800;23;20021;-72
2020/12/11 05:52:11;;;;;;;23.83;11.73;;;4.90;62.80;;;;;;6101586;23;20029;-73
2020/12/11 05:54:44;;;;;;;21.77;11.15;;;4.90;62.30;;;;;;6184844;23;20012;-73
2020/12/11 05:57:12;;;;;;;23.90;10.85;;;4.80;62.80;;;;;;6244041;23;20020;-70
2020/12/11 05:59:38;;;;;;;22.35;9.88;;;;;;;;;;6244069;23;20012;-71
2020/12/11 06:02:05;;;;;;;14.95;9.20;;;;;;;;;;6216530;23;20455;-73
2020/12/11 06:04:32;;;;;;;20.98;10.63;;;4.30;64.60;;;;;;6243889;23;20008;-74
2020/12/11 06:06:59;;;;;;;;;;;4.40;65.20;;;;;;6244295;23;20413;-72
2020/12/11 06:09:38;;;;;;;17.75;10.23;;;5.10;62.60;;;;;;6244271;23;20275;-72
2020/12/11 06:12:06;;;;;;;22.83;11.88;;;4.70;63.50;;;;;;6245949;23;20398;-72
2020/12/11 06:14:41;;;;;;;22.42;11.50;;;4.70;63.50;;;;;;6244199;23;20008;-72
2020/12/11 06:17:09;;;;;;;21.67;10.98;;;4.40;63.70;;;;;;6216955;23;20020;-73
2020/12/11 06:19:39;;;;;;;21.08;11.32;;;4.60;63.70;;;;;;6243907;23;20393;-72
2020/12/11 06:22:08;;;;;;;20.60;11.43;;;4.40;63.90;;;;;;6218676;23;20008;-71
2020/12/11 06:24:35;;;;;;;22.15;11.75;;;;;;;;;;6243570;23;20318;-71
2020/12/11 06:27:03;;;;;;;22.45;10.90;;;4.80;63.30;;;;;;6243208;23;20333;-69
2020/12/11 06:29:31;;;;;;;22.45;10.95;;;4.70;62.40;;;;;;6216707;23;20286;-70
2020/12/11 06:31:58;;;;;;;20.83;10.77;;;;;;;;;;6242994;23;20532;-70
2020/12/11 06:34:24;;;;;;;31.45;11.95;;;;;;;;;;6243354;23;20012;-71
2020/12/11 06:36:54;;;;;;;21.35;10.75;;;5.00;63.20;;;;;;6243914;23;20019;-69
2020/12/11 06:39:40;;;;;;;20.30;10.48;;;4.80;63.00;;;;;;6236898;23;20318;-69
2020/12/11 06:42:29;;;;;;;25.25;10.60;;;4.90;62.80;;;;;;6239966;23;20073;-68
2020/12/11 06:45:13;;;;;;;17.73;9.57;;;4.60;63.30;;;;;;6215856;23;20004;-70
2020/12/11 06:47:57;;;;;;;19.92;10.40;;;4.20;65.10;;;;;;6243513;23;20083;-66
2020/12/11 06:50:25;;;;;;;16.40;9.35;;;4.30;65.40;;;;;;6241022;23;20008;-69
2020/12/11 06:52:52;;;;;;;21.02;10.20;;;;;;;;;;6240821;23;20004;-69
2020/12/11 06:55:18;;;;;;;17.85;8.85;;;;;;;;;;6240302;23;20016;-66
2020/12/11 06:57:45;;;;;;;20.00;9.48;;;4.20;65.50;;;;;;6213413;23;20437;-67
2020/12/11 07:00:29;;;;;;;19.35;10.02;;;4.40;65.00;;;;;;6241022;23;20016;-67
2020/12/11 07:03:25;;;;;;;22.45;10.70;;;4.50;64.70;;;;;;6240261;23;20008;-67
2020/12/11 07:06:00;;;;;;;23.65;9.82;;;4.90;63.40;;;;;;6240878;23;20015;-67
2020/12/11 07:08:27;;;;;;;24.05;11.32;;;;;;;;;;6239922;23;20014;-67
2020/12/11 07:10:53;;;;;;;24.50;12.10;;;;;;;;;;6240325;23;20448;-70
2020/12/11 07:13:19;;;;;;;19.83;9.93;;;;;;;;;;6213165;23;20012;-69
2020/12/11 07:15:58;;;;;;;26.10;10.02;;;4.70;63.90;;;;;;6240266;23;20009;-69
2020/12/11 07:18:24;;;;;;;18.23;9.07;;;;;;;;;;6213617;23;20032;-69
2020/12/11 07:20:58;;;;;;;17.65;9.32;;;4.80;63.80;;;;;;6240615;23;20012;-69
2020/12/11 07:23:24;;;;;;;23.98;11.23;;;;;;;;;;6240145;23;20046;-65
2020/12/11 07:25:53;;;;;;;17.40;8.85;;;3.50;61.60;;;;;;6240086;23;20016;-67
2020/12/11 07:28:20;;;;;;;20.63;10.40;;;4.80;63.90;;;;;;6240794;22;20047;-70
2020/12/11 07:30:46;;;;;;;;;;;4.70;63.80;;;;;;6241442;23;20079;-70
2020/12/11 07:33:13;;;;;;;19.48;10.45;;;;;;;;;;6240409;23;20296;-68
2020/12/11 07:35:49;;;;;;;20.50;10.05;;;5.60;61.60;;;;;;6240738;23;20065;-70
2020/12/11 07:38:17;;;;;;;21.60;11.38;;;5.50;61.40;;;;;;6240284;23;20086;-68
2020/12/11 07:40:44;;;;;;;22.10;11.27;;;;;;;;;;6240886;23;20000;-69
2020/12/11 07:43:11;;;;;;;21.15;10.95;;;;;;;;;;6240222;23;20323;-70
2020/12/11 07:45:38;;;;;;;15.63;8.25;;;5.30;61.70;;;;;;6240347;23;20615;-69
2020/12/11 07:48:05;;;;;;;20.63;11.13;;;;;;;;;;6240757;23;20069;-68
2020/12/11 07:50:31;;;;;;;21.48;10.48;;;;;;;;;;6240495;23;20012;-69
2020/12/11 07:52:58;;;;;;;15.57;8.50;;;;;;;;;;6241171;23;20019;-68
2020/12/11 07:55:28;;;;;;;22.20;10.48;;;4.90;64.00;;;;;;6214402;23;20278;-69
2020/12/11 07:57:55;;;;;;;19.27;10.00;;;;;;;;;;6240203;23;20059;-70
2020/12/11 08:00:21;;;;;;;28.20;12.40;;;;;;;;;;6234663;23;20024;-70
2020/12/11 08:02:55;;;;;;;22.30;10.70;;;5.10;63.50;;;;;;6239418;22;20869;-68
2020/12/11 08:05:22;;;;;;;21.08;10.43;;;;;;;;;;6239831;22;20456;-69
2020/12/11 08:07:53;;;;;;;22.85;10.05;;;5.20;63.20;;;;;;6239396;22;20012;-71
2020/12/11 08:10:21;;;;;;;18.15;8.48;;;4.80;64.90;;;;;;6238504;23;20012;-70
2020/12/11 08:12:49;;;;;;;25.45;10.95;;;5.10;65.10;;;;;;6240977;22;20012;-68
2020/12/11 08:15:32;;;;;;;23.08;10.82;;;5.00;65.10;;;;;;6243562;22;20020;-70
2020/12/11 08:18:20;;;;;;;20.50;9.48;;;4.80;65.40;;;;;;6240661;22;20153;-68
2020/12/11 08:20:57;;;;;;;25.65;10.43;;;4.60;66.50;;;;;;6242703;23;20123;-69
2020/12/11 08:23:24;;;;;;;16.45;8.90;;;;;;;;;;6243046;22;20019;-70
2020/12/11 08:26:13;;;;;;;20.77;10.40;;;4.90;66.30;;;;;;6242642;22;20732;-65
2020/12/11 08:28:39;;;;;;;21.02;10.32;;;;;;;;;;6242439;23;20047;-71
2020/12/11 08:31:15;;;;;;;21.48;9.55;;;4.80;65.20;;;;;;6241023;23;20004;-70
2020/12/11 08:33:41;;;;;;;24.65;10.88;;;;;;;;;;6242815;22;20039;-69
2020/12/11 08:36:22;;;;;;;25.50;11.38;;;5.20;65.30;;;;;;6241860;22;20500;-68
2020/12/11 08:39:14;;;;;;;23.65;11.13;;;5.30;64.70;;;;;;6242170;22;20008;-68
2020/12/11 08:41:55;;;;;;;24.75;10.80;;;5.30;63.60;;;;;;6241994;22;20015;-69
2020/12/11 08:44:42;;;;;;;17.58;9.60;;;;;;;;;;6241489;22;20011;-69
2020/12/11 08:47:48;;;;;;;20.30;9.98;;;5.40;63.80;;;;;;6243148;22;20088;-70
2020/12/11 08:53:08;;;;;;;20.20;10.18;;;5.20;65.30;;;;;;6241353;23;20008;-69
2020/12/11 08:55:34;;;;;;;18.88;9.77;;;;;;;;;;6241483;22;20008;-67
2020/12/11 08:58:00;;;;;;;27.83;9.18;;;;;;;;;;6241994;23;20026;-68
2020/12/11 09:00:27;;;;;;;30.13;9.80;;;;;;;;;;6244155;23;20095;-69
2020/12/11 09:02:53;;;;;;;29.60;11.00;;;;;;;;;;6216484;23;20063;-71
2020/12/11 09:05:23;;;;;;;16.40;8.82;;;;;;;;;;6243319;23;20011;-67
2020/12/11 09:07:50;;;;;;;19.60;9.98;;;;;;;;;;6243864;23;20035;-67
2020/12/11 09:10:18;;;;;;;15.88;8.70;;;5.00;65.50;;;;;;6243628;23;20456;-69
2020/12/11 09:12:46;;;;;;;22.92;11.88;;;;;;;;;;6216544;23;20079;-71
2020/12/11 09:15:13;;;;;;;16.73;8.02;;;5.40;63.70;;;;;;6243167;23;20016;-68
2020/12/11 09:17:39;;;;;;;20.23;10.38;;;;;;;;;;6243514;23;20032;-70
2020/12/11 09:20:06;;;;;;;20.17;10.50;;;5.50;63.90;;;;;;6243768;23;20008;-69
2020/12/11 09:22:32;;;;;;;24.23;11.25;;;5.70;64.20;;;;;;6244106;23;20052;-69
2020/12/11 09:24:59;;;;;;;19.08;9.52;;;;;;;;;;6244385;23;20012;-68
2020/12/11 09:27:25;;;;;;;21.20;9.75;;;;;;;;;;6216527;23;20008;-68
2020/12/11 09:29:54;;;;;;;25.30;11.38;;;;;;;;;;6243519;23;20104;-70
2020/12/11 09:32:40;;;;;;;18.83;8.75;;;;;;;;;;6243137;23;20485;-70
2020/12/11 09:35:07;;;;;;;20.83;10.63;;;;;;;;;;6216941;23;20016;-69
2020/12/11 09:37:33;;;;;;;22.00;10.57;;;;;;;;;;6216512;23;20008;-70
2020/12/11 09:39:59;;;;;;;20.38;9.90;;;;;;;;;;6216131;23;20381;-71
2020/12/11 09:42:50;;;;;;;17.38;8.15;;;;;;;;;;6244078;23;20008;-69
2020/12/11 09:48:21;;;;;;;20.33;10.80;;;;;;;;;;6095107;23;20113;-68
2020/12/11 09:53:58;;;;;;;18.80;9.93;;;;;;;;;;6120005;23;20537;-69
2020/12/11 09:56:25;;;;;;;20.25;10.18;;;6.00;63.40;;;;;;6120049;23;20024;-68
2020/12/11 10:01:58;;;;;;;19.05;9.65;;;;;;;;;;6120434;23;20014;-70
2020/12/11 10:04:25;;;;;;;21.00;9.98;;;;;;;;;;6095543;23;20010;-69
2020/12/11 10:06:51;;;;;;;20.23;10.30;;;;;;;;;;6119943;23;20021;-69
2020/12/11 10:09:17;;;;;;;20.25;10.60;;;;;;;;;;6120482;23;20010;-68
2020/12/11 10:11:44;;;;;;;16.85;8.77;;;;;;;;;;6119863;23;20037;-68
2020/12/11 10:16:53;;;;;;;18.42;9.30;;;6.70;61.60;;;;;;6119117;23;20022;-71
2020/12/11 10:19:21;;;;;;;16.55;9.82;;;6.70;61.80;;;;;;6120178;23;20394;-70
2020/12/11 10:21:51;;;;;;;20.17;9.38;;;6.70;61.60;;;;;;6120403;23;20006;-69
2020/12/11 10:24:18;;;;;;;21.25;9.75;;;6.60;62.60;;;;;;6141502;23;20096;-69
2020/12/11 10:26:45;;;;;;;22.58;10.15;;;;;;;;;;6179507;23;20322;-69
2020/12/11 10:29:11;;;;;;;19.52;9.65;;;;;;;;;;6178261;23;20468;-69
2020/12/11 10:31:46;;;;;;;20.90;9.10;;;;;;;;;;6179523;23;20012;-69
2020/12/11 10:34:14;;;;;;;18.50;9.50;;;7.10;60.80;;;;;;6179114;23;20387;-67
2020/12/11 10:36:40;;;;;;;20.30;10.25;;;;;;;;;;6180733;23;20095;-68
2020/12/11 10:39:07;;;;;;;22.88;10.10;;;;;;;;;;6227139;23;20425;-68
2020/12/11 10:41:33;;;;;;;18.45;9.52;;;;;;;;;;6243739;22;20043;-68
2020/12/11 10:43:59;;;;;;;13.73;8.07;;;;;;;;;;6242194;22;20008;-68
2020/12/11 10:46:26;;;;;;;19.38;10.38;;;;;;;;;;6241576;23;20084;-69
2020/12/11 10:48:52;;;;;;;25.30;10.85;;;;;;;;;;6240662;23;20008;-69
2020/12/11 10:51:19;;;;;;;17.70;9.68;;;7.30;62.50;;;;;;6241339;23;20407;-68
2020/12/11 10:53:46;;;;;;;18.77;9.55;;;6.90;64.40;;;;;;6240777;23;20144;-72
2020/12/11 10:56:14;;;;;;;18.00;9.77;;;6.50;66.70;;;;;;6240936;23;20301;-69
2020/12/11 10:58:40;;;;;;;16.67;8.55;;;;;;;;;;6240435;23;20054;-66
2020/12/11 11:01:10;;;;;;;15.82;9.82;;;5.90;70.20;;;;;;6240729;23;20010;-70
2020/12/11 11:03:37;;;;;;;18.83;9.68;;;6.10;69.90;;;;;;6241816;22;20441;-68
2020/12/11 11:09:00;;;;;;;19.48;9.63;;;;;;;;;;6242668;22;20451;-68
2020/12/11 11:11:32;;;;;;;17.50;9.38;;;;;;;;;;6242558;22;20107;-69
2020/12/11 11:19:31;;;;;;;18.85;10.73;;;;;;;;;;6242919;22;20008;-69
2020/12/11 11:29:56;;;;;;;19.48;9.93;;;;;;;;;;6242451;22;20046;-68
2020/12/11 11:32:22;;;;;;;20.08;10.00;;;;;;;;;;6239443;23;20004;-68
2020/12/11 11:34:48;;;;;;;19.42;10.63;;;;;;;;;;6238070;23;20012;-71
2020/12/11 11:37:14;;;;;;;19.30;9.43;;;;;;;;;;6240065;22;20075;-69
2020/12/11 11:39:41;;;;;;;18.20;9.50;;;;;;;;;;6240620;23;20831;-68
2020/12/11 11:42:07;;;;;;;20.77;9.38;;;;;;;;;;6213091;23;20008;-70
2020/12/11 11:44:51;;;;;;;17.33;9.40;;;;;;;;;;6239780;22;20011;-72
2020/12/11 11:47:17;;;;;;;20.10;9.88;;;;;;;;;;6241423;22;20099;-69
2020/12/11 11:52:26;;;;;;;23.77;10.55;;;;;;;;;;6240765;23;20008;-68
2020/12/11 11:54:52;;;;;;;19.45;9.02;;;;;;;;;;6239575;23;20012;-68
2020/12/11 11:57:19;;;;;;;18.50;9.35;;;;;;;;;;6243009;23;20019;-69
2020/12/11 11:59:45;;;;;;;14.35;7.88;;;;;;;;;;6241630;23;20016;-68
2020/12/11 12:02:12;;;;;;;21.35;9.23;;;;;;;;;;6242729;23;20093;-69
2020/12/11 12:04:38;;;;;;;17.92;9.73;;;;;;;;;;6242089;23;20008;-69
2020/12/11 12:07:04;;;;;;;17.80;9.45;;;;;;;;;;6241611;23;20014;-69
2020/12/11 12:09:30;;;;;;;14.15;8.07;;;;;;;;;;6242491;23;20004;-69
2020/12/11 12:11:56;;;;;;;18.80;8.98;;;;;;;;;;6241560;23;20088;-68
2020/12/11 12:14:23;;;;;;;21.02;8.98;;;;;;;;;;6242257;23;20082;-70
2020/12/11 12:16:54;;;;;;;15.05;7.43;;;6.90;67.90;;;;;;6213786;23;20613;-67
2020/12/11 12:19:44;;;;;;;17.23;8.85;;;;;;;;;;6241138;23;20016;-68
2020/12/11 12:29:52;;;;;;;16.52;8.65;;;;;;;;;;6214369;23;20182;-66
2020/12/11 12:32:20;;;;;;;16.73;8.05;;;;;;;;;;6241605;23;20005;-68
2020/12/11 12:34:58;;;;;;;17.73;9.13;;;;;;;;;;6241405;23;20012;-69
2020/12/11 12:45:03;;;;;;;15.65;7.90;;;7.80;65.50;;;;;;6242234;23;20015;-68
2020/12/11 12:47:30;;;;;;;13.65;7.00;;;;;;;;;;6243815;23;20011;-69
2020/12/11 12:49:56;;;;;;;15.98;8.35;;;;;;;;;;6243700;23;20004;-68
2020/12/11 12:52:22;;;;;;;16.38;8.10;;;;;;;;;;6243428;23;20016;-69
2020/12/11 12:54:49;;;;;;;15.13;7.40;;;;;;;;;;6243609;23;20012;-70
2020/12/11 12:57:23;;;;;;;13.40;7.82;;;;;;;;;;6215667;23;20012;-70
2020/12/11 13:05:04;;;;;;;14.38;8.02;;;;;;;;;;6242835;23;20004;-69
2020/12/11 13:07:30;;;;;;;10.30;6.47;;;;;;;;;;6214896;23;20433;-70
2020/12/11 13:09:56;;;;;;;12.23;6.75;;;;;;;;;;6242113;23;20423;-71
2020/12/11 13:12:23;;;;;;;12.23;5.93;;;;;;;;;;6242158;23;20397;-69
2020/12/11 13:14:49;;;;;;;12.80;7.07;;;;;;;;;;6242340;23;20355;-70
2020/12/11 13:17:15;;;;;;;17.65;8.00;;;;;;;;;;6242626;23;20008;-70
2020/12/11 13:19:42;;;;;;;19.98;8.20;;;;;;;;;;6242948;23;20031;-71
2020/12/11 13:27:40;;;;;;;13.73;7.30;;;7.70;66.70;;;;;;6242243;23;20075;-70
2020/12/11 13:30:06;;;;;;;14.70;7.88;;;;;;;;;;6243039;23;20082;-70
2020/12/11 13:32:33;;;;;;;11.20;6.15;;;;;;;;;;6242580;23;20490;-68
2020/12/11 13:34:59;;;;;;;16.48;7.55;;;;;;;;;;6242108;23;20069;-71
2020/12/11 13:37:31;;;;;;;12.90;7.15;;;;;;;;;;6242608;23;20019;-70
2020/12/11 13:39:58;;;;;;;15.35;7.75;;;;;;;;;;6242495;23;20015;-71
2020/12/11 13:42:24;;;;;;;11.05;5.75;;;;;;;;;;6242393;23;20078;-70
2020/12/11 13:44:51;;;;;;;13.52;6.82;;;;;;;;;;6241923;23;20008;-72
2020/12/11 13:47:17;;;;;;;13.73;6.90;;;;;;;;;;6243068;23;20421;-71
2020/12/11 13:49:43;;;;;;;12.57;6.70;;;;;;;;;;6243520;23;20034;-71
2020/12/11 13:52:10;;;;;;;12.90;6.82;;;;;;;;;;6242992;23;20003;-71
2020/12/11 13:54:36;;;;;;;15.43;6.63;;;;;;;;;;6242977;23;20012;-71
2020/12/11 13:57:04;;;;;;;12.38;6.80;;;;;;;;;;6243044;23;20054;-70
2020/12/11 13:59:31;;;;;;;12.90;7.40;;;;;;;;;;6242587;23;20081;-71
2020/12/11 14:01:58;;;;;;;16.65;8.32;;;8.20;66.10;;;;;;6242464;23;20396;-72
2020/12/11 14:04:24;;;;;;;10.05;6.85;;;;;;;;;;6244063;23;20000;-73
2020/12/11 14:06:51;;;;;;;14.73;7.57;;;;;;;;;;6244925;23;20016;-71
2020/12/11 14:09:17;;;;;;;13.90;7.90;;;;;;;;;;6243763;23;20054;-71
2020/12/11 14:11:44;;;;;;;14.57;8.18;;;8.10;67.30;;;;;;6215940;23;20115;-73
2020/12/11 14:14:10;;;;;;;13.55;7.28;;;;;;;;;;6243018;23;20031;-70
2020/12/11 14:16:51;;;;;;;15.25;7.57;;;;;;;;;;6241404;23;20421;-72
2020/12/11 14:24:29;;;;;;;13.93;7.15;;;;;;;;;;6242162;23;20001;-71
2020/12/11 14:26:56;;;;;;;14.00;7.05;;;;;;;;;;6242013;23;20065;-71
2020/12/11 14:29:22;;;;;;;13.95;7.35;;;;;;;;;;6242342;23;20012;-72
2020/12/11 14:31:49;;;;;;;15.40;6.57;;;7.90;67.60;;;;;;6242603;23;20016;-72
2020/12/11 14:34:16;;;;;;;14.73;7.72;;;7.90;67.90;;;;;;6241707;23;20467;-71
2020/12/11 14:36:42;;;;;;;;;;;7.90;68.40;;;;;;6242638;23;20452;-70
2020/12/11 14:39:11;;;;;;;13.77;6.15;;;;;;;;;;6242318;23;19908;-72
2020/12/11 14:41:39;;;;;;;13.65;6.65;;;7.70;68.70;;;;;;6215564;23;20458;-72
2020/12/11 14:44:04;;;;;;;;;;;7.70;69.10;;;;;;6243258;23;20066;-71
2020/12/11 14:46:31;;;;;;;12.93;6.90;;;;;;;;;;6241754;23;19912;-71
2020/12/11 14:48:58;;;;;;;13.38;7.13;;;8.10;67.80;;;;;;6241936;23;20094;-73
2020/12/11 14:51:32;;;;;;;12.07;6.63;;;8.20;67.90;;;;;;6242015;23;20409;-71
2020/12/11 14:53:59;;;;;;;9.90;5.78;;;;;;;;;;6242322;23;20008;-72
2020/12/11 14:56:25;;;;;;;10.88;6.07;;;;;;;;;;6242127;23;20012;-72
2020/12/11 14:58:52;;;;;;;10.10;6.15;;;;;;;;;;6241775;23;20362;-72
2020/12/11 15:01:19;;;;;;;12.55;6.38;;;8.00;68.50;;;;;;6242563;23;20012;-69